Thunder radar more information blitzortung!


Radar de pluja more information rain snow radar


Visita la nostra xarxa de llocs de meteo:

Template documentation
and downloads

And another site



No particular awareness of the weather is required.    There are no Weather-warnings

Pagina Historial Weather Underground text

Diari Resum Desembre 24, 2017 Unitats:  Mètric    Imperial   Tant
« Previous Dia
SegĂźent Dia »
Diari Setmana Mensual Anual Personalitzada
  Maxima: Minima: Media:
Temperatura: -17.8 °C -16.8 °C -13.5 °C
Punt de rosada: -17.8 °C -18.6 °C -16.8 °C
Humitat: Humidity % 58 % 66 %
Wind Speed: 0 km/h 0 km/h 4.2 km/h
RĂ fegues de vent: 0 km/h - -
Vent:- - SE
Pression baro: 0 hPa 34740.4 hPa -
Precipitacions: 0 mm    
Historical Graphs
 
 
Dades de taula per Desembre 24, 2017
Temps Temperatura Punt de rosada Pression baro Vent Wind Speed RĂ fegues de vent Humitat Rainfall Rate (Hourly)
-17.8 °C -17.8 °C 0 hPa Calm     Humidity % 0 mm
00:00 -15.3 °C -17.6 °C 35001.1 hPa Calm     75 % 0 mm
00:04 -15.3 °C -17.6 °C 35001.1 hPa Calm     75 % 0 mm
00:05 -15.3 °C -17.6 °C 35001.1 hPa Calm     75 % 0 mm
00:10 -15.3 °C -17.7 °C 35001.1 hPa NNE 3.7 km/h 5.1 km/h 74 % 0 mm
00:15 -16.5 °C -18.3 °C 34946.9 hPa NE 5.1 km/h 7.7 km/h 79 % 0 mm
00:25 -16.5 °C -18.3 °C 34946.9 hPa North 5.1 km/h 12.9 km/h 79 % 0 mm
00:35 -16.5 °C -18.3 °C 34946.9 hPa NNE 7.7 km/h 10.3 km/h 79 % 0 mm
00:45 -16.6 °C -18.4 °C 34946.9 hPa NNE 5.1 km/h 10.3 km/h 79 % 0 mm
00:55 -16.6 °C -18.4 °C 34946.9 hPa NNW 2.6 km/h 15.6 km/h 79 % 0 mm
01:05 -16.7 °C -18.5 °C 34946.9 hPa NW 2.6 km/h 5.1 km/h 79 % 0 mm
01:15 -16.7 °C -18.5 °C 34946.9 hPa West 2.6 km/h 5.1 km/h 79 % 0 mm
01:25 -16.7 °C -18.4 °C 34946.9 hPa West 2.6 km/h 5.1 km/h 80 % 0 mm
01:35 -16.7 °C -18.4 °C 34946.9 hPa WNW 5.1 km/h 7.7 km/h 80 % 0 mm
01:45 -16.7 °C -18.5 °C 34946.9 hPa WNW 2.6 km/h 5.1 km/h 79 % 0 mm
01:55 -16.8 °C -18.6 °C 34946.9 hPa Calm   5.1 km/h 79 % 0 mm
02:15 -16.8 °C -18.5 °C 34946.9 hPa WNW 2.6 km/h 5.1 km/h 80 % 0 mm
02:25 -16.7 °C -18.4 °C 34946.9 hPa WNW 5.1 km/h 10.3 km/h 80 % 0 mm
02:35 -16.8 °C -18.5 °C 34946.9 hPa Calm   15.6 km/h 80 % 0 mm
02:45 -16.6 °C -18.3 °C 34946.9 hPa NNW 2.6 km/h 5.1 km/h 80 % 0 mm
03:05 -16.4 °C -18 °C 34946.9 hPa North 5.1 km/h 7.7 km/h 81 % 0 mm
03:15 -16.3 °C -18 °C 34946.9 hPa North 2.6 km/h 10.3 km/h 80 % 0 mm
03:25 -16.1 °C -17.8 °C 34899.5 hPa North 2.6 km/h 7.7 km/h 80 % 0 mm
03:35 -16 °C -17.7 °C 34946.9 hPa NNE 5.1 km/h 7.7 km/h 80 % 0 mm
03:45 -15.8 °C -17.6 °C 34946.9 hPa NNE 2.6 km/h 10.3 km/h 80 % 0 mm
03:55 -15.6 °C -17.3 °C 34946.9 hPa North 2.6 km/h 5.1 km/h 80 % 0 mm
04:05 -15.5 °C -17.3 °C 34946.9 hPa North 5.1 km/h 5.1 km/h 79 % 0 mm
04:15 -15.3 °C -17.2 °C 34946.9 hPa NE 5.1 km/h 7.7 km/h 79 % 0 mm
04:25 -15.2 °C -17.1 °C 34946.9 hPa NNE 2.6 km/h 7.7 km/h 78 % 0 mm
04:35 -15.1 °C -17.2 °C 34946.9 hPa NE 5.1 km/h 10.3 km/h 77 % 0 mm
04:45 -15.1 °C -17.1 °C 34946.9 hPa NE 7.7 km/h 12.9 km/h 77 % 0 mm
04:55 -15 °C -17.2 °C 34946.9 hPa NE 7.7 km/h 10.3 km/h 76 % 0 mm
05:05 -14.9 °C -17.1 °C 34946.9 hPa NNE 5.1 km/h 18.2 km/h 76 % 0 mm
05:15 -14.9 °C -17.2 °C 34946.9 hPa NNE 7.7 km/h 10.3 km/h 75 % 0 mm
11:17 -14.7 °C -17.1 °C 34946.9 hPa ESE 11.9 km/h 11.9 km/h 74 % 0 mm
11:18 -14.7 °C -17.1 °C 34946.9 hPa ENE 11.9 km/h 11.9 km/h 74 % 0 mm
11:23 -14.6 °C -16.9 °C 34946.9 hPa ENE 6.3 km/h 6.3 km/h 74 % 0 mm
11:25 -14.5 °C -16.9 °C 34946.9 hPa NE 9 km/h 9 km/h 74 % 0 mm
11:28 -14.4 °C -16.8 °C 34946.9 hPa NE 11.9 km/h 11.9 km/h 74 % 0 mm
11:33 -14.5 °C -17 °C 34946.9 hPa NNE 15 km/h 15 km/h 73 % 0 mm
11:35 -14.4 °C -16.9 °C 34946.9 hPa NNE 9 km/h 9 km/h 73 % 0 mm
11:40 -14.3 °C -16.8 °C 34946.9 hPa NNE 11.9 km/h 11.9 km/h 73 % 0 mm
11:43 -14.2 °C -16.7 °C 34946.9 hPa ENE 11.9 km/h 11.9 km/h 73 % 0 mm
11:46 -14.2 °C -16.8 °C 34946.9 hPa NW 11.9 km/h 11.9 km/h 72 % 0 mm
11:50 -14.1 °C -16.7 °C 34946.9 hPa ENE 9 km/h 9.8 km/h 72 % 0 mm
11:52 -14.1 °C -16.7 °C 34946.9 hPa ENE 9 km/h 9 km/h 72 % 0 mm
11:57 -14 °C -16.6 °C 34899.5 hPa North 9 km/h 9 km/h 72 % 0 mm
12:02 -14.1 °C -16.9 °C 34899.5 hPa North 15 km/h 15 km/h 70 % 0 mm
12:06 -13.9 °C -16.8 °C 34899.5 hPa SSE 9 km/h 9 km/h 70 % 0 mm
12:07 -13.9 °C -16.7 °C 34899.5 hPa NE 9 km/h 9 km/h 70 % 0 mm
12:12 -13.8 °C -16.7 °C 34946.9 hPa ENE 15 km/h 15 km/h 70 % 0 mm
12:13 -13.8 °C -16.7 °C 34946.9 hPa ENE 15 km/h 15 km/h 70 % 0 mm
12:18 -13.8 °C -16.6 °C 34946.9 hPa NE 11.9 km/h 11.9 km/h 70 % 0 mm
12:23 -13.6 °C -16.6 °C 34946.9 hPa NNE 10.3 km/h 10.3 km/h 69 % 0 mm
12:25 -13.7 °C -16.6 °C 34899.5 hPa ENE 11.9 km/h 11.9 km/h 69 % 0 mm
12:29 -13.6 °C -16.6 °C 34899.5 hPa NE 6.3 km/h 6.3 km/h 69 % 0 mm
12:31 -13.6 °C -16.7 °C 34899.5 hPa ENE 15 km/h 15 km/h 68 % 0 mm
12:36 -13.6 °C -16.7 °C 34899.5 hPa NE 11.9 km/h 11.9 km/h 68 % 0 mm
12:38 -13.6 °C -16.6 °C 34899.5 hPa NNE 11.1 km/h 11.1 km/h 68 % 0 mm
12:43 -13.6 °C -16.6 °C 34946.9 hPa NE 15 km/h 15 km/h 68 % 0 mm
12:44 -13.6 °C -16.8 °C 34946.9 hPa East 12.2 km/h 12.2 km/h 67 % 0 mm
12:48 -13.5 °C -16.7 °C 34946.9 hPa ENE 17.9 km/h 17.9 km/h 67 % 0 mm
12:53 -13.3 °C -16.5 °C 34946.9 hPa NNE 9 km/h 9 km/h 67 % 0 mm
12:54 -13.3 °C -16.5 °C 34899.5 hPa NNE 9 km/h 9 km/h 67 % 0 mm
12:55 -13.2 °C -16.4 °C 34899.5 hPa NNE 9 km/h 9 km/h 67 % 0 mm
12:59 -13.2 °C -16.4 °C 34899.5 hPa NW 9 km/h 9 km/h 67 % 0 mm
13:02 -13.1 °C -16.3 °C 34899.5 hPa NNE 11.9 km/h 11.9 km/h 67 % 0 mm
13:05 -13.1 °C -16.4 °C 34899.5 hPa East 9 km/h 9 km/h 66 % 0 mm
13:10 -13.1 °C -16.5 °C 34875.8 hPa East 17.9 km/h 17.9 km/h 65 % 0 mm
13:11 -13.1 °C -16.5 °C 34875.8 hPa ENE 17.9 km/h 17.9 km/h 65 % 0 mm
13:13 -13.1 °C -16.5 °C 34875.8 hPa NE 15 km/h 15 km/h 65 % 0 mm
13:18 -12.9 °C -16.3 °C 34875.8 hPa NNE 11.9 km/h 11.9 km/h 65 % 0 mm
13:23 -12.8 °C -16.2 °C 34875.8 hPa NE 9 km/h 9 km/h 65 % 0 mm
13:28 -12.7 °C -16.3 °C 34875.8 hPa ENE 9 km/h 9 km/h 64 % 0 mm
13:29 -12.7 °C -16.3 °C 34875.8 hPa NE 6 km/h 6 km/h 64 % 0 mm
13:34 -12.6 °C -16.2 °C 34875.8 hPa ENE 9 km/h 9 km/h 64 % 0 mm
13:35 -12.6 °C -16.2 °C 34875.8 hPa ENE 6.8 km/h 6.8 km/h 64 % 0 mm
13:36 -12.6 °C -16.2 °C 34875.8 hPa ENE 6.8 km/h 6.8 km/h 64 % 0 mm
13:41 -12.5 °C -16.2 °C 34875.8 hPa NNE 11.9 km/h 11.9 km/h 63 % 0 mm
13:42 -12.5 °C -16.2 °C 34875.8 hPa NNE 9 km/h 9 km/h 63 % 0 mm
13:46 -12.5 °C -16.2 °C 34875.8 hPa NNE 9 km/h 9 km/h 63 % 0 mm
13:47 -12.4 °C -16.2 °C 34875.8 hPa ENE 6 km/h 6 km/h 63 % 0 mm
13:52 -12.3 °C -16 °C 34875.8 hPa NE 9 km/h 9 km/h 63 % 0 mm
13:55 -12.3 °C -16 °C 34875.8 hPa NNE 7.6 km/h 7.6 km/h 63 % 0 mm
14:00 -12.2 °C -15.9 °C 34875.8 hPa NNE 6 km/h 6 km/h 63 % 0 mm
14:01 -12.3 °C -16.2 °C 34875.8 hPa NNE 9.8 km/h 9.8 km/h 62 % 0 mm
14:06 -12.2 °C -16.1 °C 34875.8 hPa ENE 6 km/h 7.6 km/h 62 % 0 mm
14:07 -12.2 °C -16 °C 34875.8 hPa East 9.8 km/h 9.8 km/h 62 % 0 mm
14:12 -12.1 °C -16 °C 34875.8 hPa ENE 9.8 km/h 9.8 km/h 62 % 0 mm
14:17 -12.1 °C -16.1 °C 34875.8 hPa ENE 6 km/h 6.8 km/h 61 % 0 mm
14:19 -12.1 °C -15.9 °C 34875.8 hPa NE 9 km/h 9 km/h 62 % 0 mm
14:20 -12 °C -15.9 °C 34875.8 hPa NE 6 km/h 6 km/h 62 % 0 mm
14:24 -11.9 °C -15.8 °C 34841.9 hPa NW 6 km/h 6 km/h 62 % 0 mm
14:29 -11.9 °C -15.8 °C 34841.9 hPa ENE 6.3 km/h 6.3 km/h 62 % 0 mm
14:34 -11.8 °C -15.8 °C 34841.9 hPa NE 6 km/h 6 km/h 61 % 0 mm
14:35 -11.8 °C -15.8 °C 34841.9 hPa NE 3.7 km/h 3.7 km/h 61 % 0 mm
14:38 -11.7 °C -15.7 °C 34841.9 hPa ENE 3.1 km/h 4.2 km/h 61 % 0 mm
14:40 -11.7 °C -15.7 °C 34841.9 hPa NE 3.7 km/h 4.2 km/h 61 % 0 mm
14:41 -11.7 °C -15.7 °C 34841.9 hPa ENE 6 km/h 6 km/h 61 % 0 mm
14:43 -11.7 °C -15.7 °C 34841.9 hPa NE 6 km/h 6 km/h 61 % 0 mm
14:47 -11.6 °C -15.7 °C 34841.9 hPa East 6.8 km/h 6.8 km/h 61 % 0 mm
14:50 -11.6 °C -15.7 °C 34841.9 hPa ENE 6 km/h 6 km/h 60 % 0 mm
14:53 -11.6 °C -15.7 °C 34841.9 hPa NNE 7.6 km/h 7.6 km/h 60 % 0 mm
14:58 -11.4 °C -15.6 °C 34808.1 hPa East 8 km/h 8 km/h 60 % 0 mm
14:59 -11.4 °C -15.6 °C 34808.1 hPa East 6.3 km/h 6.8 km/h 60 % 0 mm
15:04 -11.4 °C -15.6 °C 34808.1 hPa NNE 6 km/h 6 km/h 60 % 0 mm
15:06 -11.4 °C -15.6 °C 34808.1 hPa NNE 6 km/h 6 km/h 60 % 0 mm
15:11 -11.3 °C -15.5 °C 34808.1 hPa NE 3.1 km/h 3.1 km/h 60 % 0 mm
15:12 -11.3 °C -15.5 °C 34808.1 hPa NE 3.1 km/h 3.1 km/h 60 % 0 mm
15:17 -11.3 °C -15.4 °C 34808.1 hPa NE 3.1 km/h 3.1 km/h 60 % 0 mm
15:20 -11.3 °C -15.4 °C 34808.1 hPa ENE 6 km/h 6 km/h 60 % 0 mm
15:24 -11.2 °C -15.4 °C 34808.1 hPa NNE 6.3 km/h 6.3 km/h 60 % 0 mm
15:29 -11.2 °C -15.3 °C 34808.1 hPa NNE 6.3 km/h 6.3 km/h 60 % 0 mm
15:30 -11.2 °C -15.3 °C 34808.1 hPa NNE 6.3 km/h 6.3 km/h 60 % 0 mm
15:35 -11.1 °C -15.4 °C 34808.1 hPa NE 6 km/h 6 km/h 59 % 0 mm
15:40 -11.1 °C -15.4 °C 34808.1 hPa NNE 6.3 km/h 6.3 km/h 59 % 0 mm
15:41 -11.1 °C -15.4 °C 34808.1 hPa NE 6 km/h 6 km/h 59 % 0 mm
15:46 -11.1 °C -15.4 °C 34808.1 hPa NE 6 km/h 6 km/h 59 % 0 mm
15:47 -11.1 °C -15.4 °C 34808.1 hPa NNE 6.8 km/h 6.8 km/h 59 % 0 mm
15:52 -11.1 °C -15.4 °C 34808.1 hPa NE 6 km/h 6 km/h 59 % 0 mm
15:53 -11.1 °C -15.4 °C 34808.1 hPa NE 6 km/h 6 km/h 59 % 0 mm
15:54 -11.1 °C -15.4 °C 34808.1 hPa NE 3.1 km/h   59 % 0 mm
15:58 -11.1 °C -15.4 °C 34808.1 hPa NE 3.1 km/h   59 % 0 mm
16:03 -11.2 °C -15.5 °C 34808.1 hPa NE 3.1 km/h 3.1 km/h 59 % 0 mm
16:04 -11.2 °C -15.5 °C 34808.1 hPa NE 3.1 km/h 3.1 km/h 59 % 0 mm
16:09 -11.2 °C -15.5 °C 34808.1 hPa North 6 km/h 6 km/h 59 % 0 mm
16:10 -11.2 °C -15.5 °C 34808.1 hPa NNW 6 km/h 6 km/h 59 % 0 mm
16:12 -11.2 °C -15.5 °C 34808.1 hPa NNE 5.1 km/h 5.1 km/h 59 % 0 mm
16:17 -11.2 °C -15.5 °C 34808.1 hPa North 3.1 km/h 3.1 km/h 59 % 0 mm
16:18 -11.2 °C -15.5 °C 34808.1 hPa North 3.1 km/h   59 % 0 mm
16:23 -11.3 °C -15.6 °C 34808.1 hPa NNE 4.2 km/h 4.2 km/h 59 % 0 mm
16:24 -11.3 °C -15.6 °C 34808.1 hPa NE 3.1 km/h 3.7 km/h 59 % 0 mm
16:29 -11.3 °C -15.8 °C 34808.1 hPa North 3.1 km/h 3.7 km/h 58 % 0 mm
16:32 -11.3 °C -15.7 °C 34808.1 hPa North 6 km/h 6 km/h 58 % 0 mm
16:37 -11.3 °C -15.6 °C 34808.1 hPa Calm     59 % 0 mm
16:38 -11.3 °C -15.6 °C 34808.1 hPa Calm     59 % 0 mm
16:43 -11.3 °C -15.7 °C 34808.1 hPa NNE 3.1 km/h 3.1 km/h 59 % 0 mm
16:44 -11.3 °C -15.8 °C 34808.1 hPa NNE 3.1 km/h 3.1 km/h 58 % 0 mm
16:45 -11.3 °C -15.7 °C 34808.1 hPa NNW 3.1 km/h   59 % 0 mm
16:50 -11.3 °C -15.7 °C 34808.1 hPa NW 3.1 km/h   59 % 0 mm
16:53 -11.3 °C -15.7 °C 34808.1 hPa NW 3.1 km/h   59 % 0 mm
16:55 -11.3 °C -15.6 °C 34808.1 hPa NNW 4.2 km/h 4.2 km/h 59 % 0 mm
17:00 -11.3 °C -15.6 °C 34808.1 hPa NW 6 km/h 6 km/h 59 % 0 mm
17:05 -11.4 °C -15.7 °C 34808.1 hPa NW 3.1 km/h 3.1 km/h 59 % 0 mm
17:06 -11.4 °C -15.7 °C 34808.1 hPa WNW 3.1 km/h 3.1 km/h 59 % 0 mm
17:11 -11.4 °C -15.7 °C 34808.1 hPa NW 3.1 km/h 3.1 km/h 59 % 0 mm
17:12 -11.4 °C -15.7 °C 34808.1 hPa NW 3.1 km/h 3.1 km/h 59 % 0 mm
17:15 -11.4 °C -15.9 °C 34808.1 hPa NW 3.1 km/h   58 % 0 mm
17:17 -11.5 °C -15.9 °C 34808.1 hPa WNW 3.1 km/h   58 % 0 mm
17:22 -11.6 °C -16 °C 34808.1 hPa Calm     58 % 0 mm
17:27 -11.7 °C -16.2 °C 34808.1 hPa WNW 3.1 km/h   58 % 0 mm
17:28 -11.7 °C -16.2 °C 34808.1 hPa ENE 3.1 km/h   58 % 0 mm
17:33 -11.8 °C -16.2 °C 34808.1 hPa NE 3.1 km/h   58 % 0 mm
17:35 -11.8 °C -16.2 °C 34808.1 hPa Calm     58 % 0 mm
17:39 -11.9 °C -16.3 °C 34808.1 hPa NE 3.1 km/h   58 % 0 mm
17:44 -11.9 °C -16.3 °C 34808.1 hPa Calm     58 % 0 mm
17:46 -11.9 °C -16.3 °C 34808.1 hPa Calm     58 % 0 mm
17:51 -12 °C -16.4 °C 34808.1 hPa Calm     58 % 0 mm
17:52 -12 °C -16.4 °C 34808.1 hPa Calm     58 % 0 mm
17:56 -12.1 °C -16.3 °C 34808.1 hPa Calm     59 % 0 mm
17:59 -12.1 °C -16.3 °C 34808.1 hPa NW 3.7 km/h   59 % 0 mm
18:00 -12.2 °C -16.4 °C 34808.1 hPa NW 4.2 km/h 4.2 km/h 59 % 0 mm
18:04 -12.3 °C -16.5 °C 34808.1 hPa WNW 3.7 km/h 3.7 km/h 59 % 0 mm
18:06 -12.3 °C -16.6 °C 34808.1 hPa West 6.3 km/h 6.3 km/h 59 % 0 mm
18:10 -12.4 °C -16.5 °C 34808.1 hPa West 3.7 km/h 3.7 km/h 60 % 0 mm
18:11 -12.4 °C -16.5 °C 34808.1 hPa West 3.1 km/h 3.1 km/h 60 % 0 mm
18:16 -12.5 °C -16.6 °C 34808.1 hPa Calm     60 % 0 mm
18:21 -12.6 °C -16.7 °C 34808.1 hPa NNE 4.2 km/h 4.2 km/h 60 % 0 mm
18:24 -12.6 °C -16.5 °C 34808.1 hPa NNE 3.7 km/h 3.7 km/h 61 % 0 mm
18:27 -12.5 °C -16.5 °C 34808.1 hPa NNE 3.1 km/h 3.1 km/h 61 % 0 mm
18:31 -12.4 °C -16.4 °C 34808.1 hPa WSW 3.1 km/h 3.1 km/h 61 % 0 mm
18:33 -12.4 °C -16.4 °C 34808.1 hPa Calm     61 % 0 mm
18:38 -12.4 °C -16.4 °C 34808.1 hPa Calm     61 % 0 mm
18:43 -12.6 °C -16.5 °C 34774.2 hPa ESE 3.7 km/h 3.7 km/h 61 % 0 mm
18:45 -12.6 °C -16.6 °C 34774.2 hPa NE 3.7 km/h 3.7 km/h 61 % 0 mm
18:46 -12.6 °C -16.6 °C 34774.2 hPa NE 3.1 km/h 3.1 km/h 61 % 0 mm
18:50 -12.7 °C -16.6 °C 34774.2 hPa Calm     61 % 0 mm
18:55 -12.7 °C -16.7 °C 34808.1 hPa Calm     61 % 0 mm
18:56 -12.7 °C -16.7 °C 34808.1 hPa Calm     61 % 0 mm
18:58 -12.8 °C -16.7 °C 34808.1 hPa Calm     61 % 0 mm
19:01 -12.8 °C -16.8 °C 34808.1 hPa NNE 3.7 km/h 3.7 km/h 61 % 0 mm
19:04 -12.8 °C -16.8 °C 34808.1 hPa NNE 3.7 km/h 3.7 km/h 61 % 0 mm
19:05 -15.3 °C -17.7 °C 34808.1 hPa NE 2.6 km/h   74 % 0 mm
19:08 -12.8 °C -16.7 °C 34808.1 hPa ENE 3.7 km/h 3.7 km/h 61 % 0 mm
19:09 -12.8 °C -16.7 °C 34808.1 hPa ENE 3.1 km/h 3.1 km/h 61 % 0 mm
19:10 -12.8 °C -16.8 °C 34808.1 hPa ENE 3.1 km/h   61 % 0 mm
19:13 -12.8 °C -16.8 °C 34808.1 hPa Calm     61 % 0 mm
19:15 -15.4 °C -17.9 °C 34808.1 hPa Calm     73 % 0 mm
19:18 -12.8 °C -16.7 °C 34808.1 hPa Calm     62 % 0 mm
19:21 -12.9 °C -16.7 °C 34808.1 hPa Calm     62 % 0 mm
19:25 -12.9 °C -16.7 °C 34808.1 hPa NE 3.1 km/h   62 % 0 mm
19:29 -12.9 °C -16.8 °C 34808.1 hPa South 3.1 km/h 3.7 km/h 62 % 0 mm
19:30 -12.9 °C -16.8 °C 34808.1 hPa South 3.1 km/h 3.7 km/h 62 % 0 mm
19:34 -13.1 °C -16.9 °C 34808.1 hPa Calm     62 % 0 mm
19:35 -15.6 °C -17.9 °C 34808.1 hPa Calm   2.6 km/h 74 % 0 mm
19:36 -13.1 °C -16.9 °C 34808.1 hPa South 3.1 km/h 3.1 km/h 62 % 0 mm
19:37 -13.1 °C -16.9 °C 34808.1 hPa Calm     62 % 0 mm
19:42 -13.1 °C -16.9 °C 34808.1 hPa Calm     62 % 0 mm
19:43 -13.1 °C -16.9 °C 34808.1 hPa Calm     62 % 0 mm
19:45 -15.7 °C -18 °C 34808.1 hPa Calm     74 % 0 mm
19:48 -13.2 °C -17 °C 34808.1 hPa Calm     62 % 0 mm
19:52 -13.3 °C -16.9 °C 34808.1 hPa Calm     63 % 0 mm
19:54 -13.3 °C -16.9 °C 34808.1 hPa Calm     63 % 0 mm
19:55 -15.7 °C -18.1 °C 34808.1 hPa Calm     74 % 0 mm
19:58 -13.3 °C -16.9 °C 34808.1 hPa Calm     63 % 0 mm
20:00 -13.3 °C -16.9 °C 34808.1 hPa Calm     63 % 0 mm
20:01 -13.3 °C -16.9 °C 34808.1 hPa Calm     63 % 0 mm
20:05 -13.3 °C -17 °C 34808.1 hPa Calm     63 % 0 mm
20:10 -13.3 °C -17 °C 34808.1 hPa Calm     63 % 0 mm
20:12 -13.3 °C -17 °C 34808.1 hPa Calm     63 % 0 mm
20:15 -15.8 °C -18.2 °C 34808.1 hPa NNE 2.6 km/h 5.1 km/h 74 % 0 mm
20:17 -13.4 °C -17.1 °C 34808.1 hPa Calm     63 % 0 mm
20:20 -13.4 °C -17.1 °C 34808.1 hPa Calm     63 % 0 mm
20:24 -13.4 °C -17.1 °C 34808.1 hPa Calm     63 % 0 mm
20:25 -13.4 °C -17.1 °C 34808.1 hPa Calm     63 % 0 mm
20:29 -13.5 °C -17.2 °C 34808.1 hPa SW 3.1 km/h 3.1 km/h 63 % 0 mm
20:32 -13.5 °C -17.2 °C 34808.1 hPa SW 4.2 km/h 4.2 km/h 63 % 0 mm
20:35 -15.8 °C -18.1 °C 34808.1 hPa Calm     75 % 0 mm
20:37 -13.5 °C -17.1 °C 34808.1 hPa SW 3.1 km/h 3.1 km/h 64 % 0 mm
20:38 -13.5 °C -17.1 °C 34808.1 hPa SW 3.7 km/h 3.7 km/h 64 % 0 mm
20:42 -13.6 °C -17.1 °C 34808.1 hPa SW 6 km/h 6 km/h 64 % 0 mm
20:45 -15.9 °C -18.1 °C 34808.1 hPa Calm     75 % 0 mm
20:47 -13.7 °C -17.2 °C 34808.1 hPa SW 3.1 km/h 3.1 km/h 64 % 0 mm
20:52 -13.7 °C -17.2 °C 34808.1 hPa SW 6 km/h 6 km/h 64 % 0 mm
20:55 -15.9 °C -18.2 °C 34774.2 hPa North 2.6 km/h 5.1 km/h 75 % 0 mm
20:57 -13.7 °C -17.2 °C 34808.1 hPa WSW 6 km/h 6 km/h 64 % 0 mm
20:58 -13.7 °C -17.2 °C 34808.1 hPa WSW 6 km/h 6 km/h 64 % 0 mm
21:02 -13.7 °C -17.1 °C 34808.1 hPa WSW 3.1 km/h 3.1 km/h 65 % 0 mm
21:05 -15.9 °C -18.1 °C 34774.2 hPa Calm   2.6 km/h 76 % 0 mm
21:07 -13.7 °C -17.1 °C 34808.1 hPa WSW 6 km/h 6 km/h 65 % 0 mm
21:08 -13.7 °C -17.1 °C 34808.1 hPa WSW 6 km/h 6 km/h 65 % 0 mm
21:10 -13.7 °C -17.1 °C 34808.1 hPa WSW 4.2 km/h 4.2 km/h 65 % 0 mm
21:13 -13.7 °C -17 °C 34808.1 hPa WSW 3.1 km/h 3.7 km/h 66 % 0 mm
21:16 -13.8 °C -17.1 °C 34808.1 hPa WSW 3.1 km/h   66 % 0 mm
21:19 -13.8 °C -17.1 °C 34808.1 hPa WSW 6 km/h 6 km/h 66 % 0 mm
21:24 -13.9 °C -17.2 °C 34808.1 hPa WSW 3.7 km/h 3.7 km/h 66 % 0 mm
21:25 -13.9 °C -17.2 °C 34808.1 hPa WSW 3.7 km/h 3.7 km/h 66 % 0 mm
21:30 -13.9 °C -17.1 °C 34808.1 hPa Calm     67 % 0 mm
21:31 -13.9 °C -17.1 °C 34808.1 hPa Calm     67 % 0 mm
21:32 -13.9 °C -17.1 °C 34808.1 hPa Calm     67 % 0 mm
21:33 -14 °C -17.2 °C 34808.1 hPa Calm     67 % 0 mm
21:35 -16 °C -18.1 °C 34774.2 hPa Calm     76 % 0 mm
21:38 -14.1 °C -17.1 °C 34808.1 hPa WNW 3.1 km/h   68 % 0 mm
21:39 -14.1 °C -17.1 °C 34808.1 hPa WNW 3.1 km/h   68 % 0 mm
21:40 -14.1 °C -17.3 °C 34808.1 hPa North 3.7 km/h 3.7 km/h 67 % 0 mm
21:45 -14.2 °C -17.3 °C 34808.1 hPa Calm     67 % 0 mm
21:49 -14.3 °C -17.4 °C 34808.1 hPa Calm     67 % 0 mm
21:52 -14.3 °C -17.5 °C 34808.1 hPa NNE 3.1 km/h 3.1 km/h 67 % 0 mm
21:54 -14.3 °C -17.5 °C 34774.2 hPa NNE 3.1 km/h   67 % 0 mm
21:59 -14.4 °C -17.4 °C 34774.2 hPa NNE 3.1 km/h   68 % 0 mm
22:00 -14.4 °C -17.4 °C 34774.2 hPa Calm     68 % 0 mm
22:05 -14.4 °C -17.4 °C 34774.2 hPa NW 3.7 km/h 3.7 km/h 68 % 0 mm
22:10 -14.4 °C -17.6 °C 34808.1 hPa NW 3.1 km/h   67 % 0 mm
22:13 -14.4 °C -17.4 °C 34808.1 hPa NW 3.1 km/h   68 % 0 mm
22:15 -16.2 °C -18.3 °C 34774.2 hPa NNE 2.6 km/h 2.6 km/h 76 % 0 mm
22:18 -14.4 °C -17.4 °C 34808.1 hPa Calm     68 % 0 mm
22:19 -14.4 °C -17.6 °C 34808.1 hPa WNW 3.1 km/h 3.1 km/h 67 % 0 mm
22:24 -14.4 °C -17.4 °C 34808.1 hPa Calm     68 % 0 mm
22:25 -14.4 °C -17.4 °C 34808.1 hPa Calm     68 % 0 mm
22:30 -14.5 °C -17.6 °C 34808.1 hPa Calm     68 % 0 mm
22:31 -14.5 °C -17.6 °C 34808.1 hPa Calm     68 % 0 mm
22:35 -16.2 °C -18.3 °C 34740.4 hPa Calm   2.6 km/h 76 % 0 mm
22:36 -14.6 °C -17.6 °C 34808.1 hPa Calm     68 % 0 mm
22:41 -14.7 °C -17.7 °C 34808.1 hPa Calm     68 % 0 mm
22:44 -14.7 °C -17.7 °C 34808.1 hPa WSW 6 km/h 6 km/h 68 % 0 mm
22:45 -16.3 °C -18.4 °C 34740.4 hPa Calm     76 % 0 mm
22:49 -14.7 °C -17.7 °C 34808.1 hPa WSW 6 km/h 6 km/h 68 % 0 mm
22:54 -14.7 °C -17.6 °C 34808.1 hPa WSW 6 km/h 6 km/h 69 % 0 mm
22:55 -16.3 °C -18.4 °C 34740.4 hPa Calm   5.1 km/h 76 % 0 mm
22:56 -14.7 °C -17.6 °C 34808.1 hPa WSW 3.1 km/h 3.1 km/h 69 % 0 mm
23:00 -14.7 °C -17.6 °C 34808.1 hPa Calm   2.6 km/h 69 % 0 mm
23:01 -14.8 °C -17.7 °C 34808.1 hPa Calm     69 % 0 mm
23:05 -16.2 °C -18.3 °C 34740.4 hPa West 2.6 km/h 7.7 km/h 76 % 0 mm
23:06 -14.8 °C -17.7 °C 34808.1 hPa NNW 3.1 km/h   69 % 0 mm
23:10 -14.8 °C -17.6 °C 34808.1 hPa Calm     70 % 0 mm
23:13 -14.7 °C -17.6 °C 34808.1 hPa Calm     70 % 0 mm
23:15 -14.7 °C -17.6 °C 34808.1 hPa Calm     70 % 0 mm
23:20 -14.8 °C -17.6 °C 34808.1 hPa Calm     70 % 0 mm
23:23 -14.8 °C -17.4 °C 34808.1 hPa Calm     71 % 0 mm
23:25 -16.2 °C -18.2 °C 34740.4 hPa Calm     77 % 0 mm
23:28 -14.8 °C -17.6 °C 34808.1 hPa Calm     71 % 0 mm
23:33 -14.9 °C -17.6 °C 34808.1 hPa Calm     71 % 0 mm
23:34 -14.9 °C -17.6 °C 34808.1 hPa Calm     71 % 0 mm
23:35 -14.9 °C -17.6 °C 34808.1 hPa Calm     71 % 0 mm
23:40 -14.9 °C -17.4 °C 34808.1 hPa Calm     72 % 0 mm
23:45 -14.9 °C -17.6 °C 34808.1 hPa Calm     72 % 0 mm
23:47 -14.9 °C -17.6 °C 34808.1 hPa Calm     72 % 0 mm
23:48 -14.9 °C -17.6 °C 34808.1 hPa NW 3.1 km/h   72 % 0 mm
23:52 -14.9 °C -17.6 °C 34808.1 hPa Calm     72 % 0 mm
23:55 -16 °C -18 °C 34740.4 hPa Calm   2.6 km/h 77 % 0 mm
23:57 -15 °C -17.7 °C 34808.1 hPa WNW 6 km/h 6 km/h 71 % 0 mm
23:59 -15 °C -17.7 °C 34808.1 hPa West 6 km/h 6 km/h 71 % 0 mm
Meteo Sesrovires
Elogis d' Weather Underground - 1.75 mb

Guio original per  Jim McMurry - jmcmurry@mwt.net Adaptat per a la plantilla per  Wim van der Kuil - Leuven-Template.eu

Trobareu la nostra informacio del temps tambe a:

Weather Underground

AWEKAS